createdAt,value
2023-03-15T00:02:12.866Z,6.47
2023-03-15T00:04:42.160Z,10.82
2023-03-15T00:07:11.442Z,10.32
2023-03-15T00:09:40.982Z,12.90
2023-03-15T00:12:12.244Z,10.95
2023-03-15T00:14:41.467Z,10.58
2023-03-15T00:17:11.899Z,9.03
2023-03-15T00:19:41.137Z,12.75
2023-03-15T00:22:11.952Z,10.78
2023-03-15T00:24:41.578Z,14.47
2023-03-15T00:27:11.212Z,14.47
2023-03-15T00:29:40.469Z,9.53
2023-03-15T00:32:11.086Z,9.40
2023-03-15T00:34:41.233Z,10.58
2023-03-15T00:37:11.426Z,9.85
2023-03-15T00:39:40.971Z,12.73
2023-03-15T00:42:10.434Z,13.03
2023-03-15T00:44:39.693Z,11.60
2023-03-15T00:47:10.264Z,12.63
2023-03-15T00:49:40.520Z,10.48
2023-03-15T00:52:11.813Z,9.05
2023-03-15T00:54:41.917Z,9.93
2023-03-15T00:57:13.034Z,7.15
2023-03-15T00:59:42.279Z,7.67
2023-03-15T01:02:12.347Z,6.87
2023-03-15T01:04:41.645Z,8.75
2023-03-15T01:07:12.372Z,8.30
2023-03-15T01:09:41.995Z,5.58
2023-03-15T01:12:13.051Z,8.15
2023-03-15T01:14:42.385Z,5.08
2023-03-15T01:17:11.742Z,3.80
2023-03-15T01:19:40.970Z,4.30
2023-03-15T01:22:10.477Z,4.03
2023-03-15T01:24:39.728Z,5.72
2023-03-15T01:27:09.088Z,6.28
2023-03-15T01:29:38.643Z,6.12
2023-03-15T01:32:10.030Z,4.25
2023-03-15T01:34:39.528Z,5.80
2023-03-15T01:37:09.513Z,5.65
2023-03-15T01:39:40.616Z,10.63
2023-03-15T01:42:11.645Z,7.87
2023-03-15T01:45:01.407Z,4.60
2023-03-15T01:47:32.590Z,6.10
2023-03-15T01:50:06.261Z,6.22
2023-03-15T01:52:38.611Z,7.22
2023-03-15T01:55:14.340Z,7.08
2023-03-15T01:57:47.918Z,9.18
2023-03-15T02:00:21.582Z,7.92
2023-03-15T02:03:08.881Z,9.50
2023-03-15T02:05:46.469Z,6.90
2023-03-15T02:08:19.211Z,6.22
2023-03-15T02:10:53.564Z,6.90
2023-03-15T02:13:24.627Z,8.00
2023-03-15T02:15:55.247Z,8.70
2023-03-15T02:18:29.186Z,6.85
2023-03-15T02:21:05.613Z,7.78
2023-03-15T02:23:35.287Z,8.48
2023-03-15T02:26:25.420Z,9.65
2023-03-15T02:28:55.720Z,11.33
2023-03-15T02:31:25.467Z,11.33
2023-03-15T02:33:57.931Z,8.78
2023-03-15T02:38:58.036Z,12.50
2023-03-15T02:41:38.748Z,9.28
2023-03-15T02:44:09.988Z,14.38
2023-03-15T02:46:40.120Z,8.73
2023-03-15T02:49:09.891Z,13.28
2023-03-15T02:51:39.185Z,11.93
2023-03-15T02:54:08.662Z,14.35
2023-03-15T02:56:37.932Z,13.50
2023-03-15T02:59:07.210Z,14.70
2023-03-15T03:01:39.576Z,13.35
2023-03-15T03:06:37.644Z,6.72
2023-03-15T03:09:07.926Z,9.88
2023-03-15T03:11:37.713Z,11.35
2023-03-15T03:14:06.986Z,9.65
2023-03-15T03:16:36.775Z,8.98
2023-03-15T03:19:06.438Z,9.68
2023-03-15T03:21:36.501Z,8.03
2023-03-15T03:24:07.590Z,8.15
2023-03-15T03:26:37.929Z,6.15
2023-03-15T03:29:07.129Z,11.73
2023-03-15T03:31:36.452Z,7.12
2023-03-15T03:34:05.927Z,9.28
2023-03-15T03:36:36.237Z,13.83
2023-03-15T03:39:05.707Z,12.63
2023-03-15T03:41:35.376Z,10.28
2023-03-15T03:44:05.237Z,12.78
2023-03-15T03:46:36.397Z,11.65
2023-03-15T03:49:05.621Z,14.10
2023-03-15T03:51:35.275Z,12.68
2023-03-15T03:54:05.194Z,10.43
2023-03-15T03:56:35.791Z,10.48
2023-03-15T03:59:04.994Z,12.15
2023-03-15T04:01:35.982Z,10.08
2023-03-15T04:04:05.496Z,10.30
2023-03-15T04:06:35.159Z,11.90
2023-03-15T04:09:04.696Z,11.73
2023-03-15T04:11:41.962Z,13.08
2023-03-15T04:14:13.105Z,13.90
2023-03-15T04:16:43.741Z,20.37
2023-03-15T04:19:14.680Z,15.58
2023-03-15T04:21:45.618Z,18.32
2023-03-15T04:24:36.751Z,17.37
2023-03-15T04:27:07.863Z,17.60
2023-03-15T04:29:47.947Z,20.62
2023-03-15T04:32:18.895Z,17.65
2023-03-15T04:34:51.356Z,18.92
2023-03-15T04:37:22.345Z,18.20
2023-03-15T04:40:12.758Z,19.75
2023-03-15T04:42:43.827Z,25.77
2023-03-15T04:45:31.564Z,21.20
2023-03-15T04:48:19.067Z,26.15
2023-03-15T04:50:49.978Z,29.63
2023-03-15T04:53:21.250Z,24.72
2023-03-15T04:56:10.136Z,25.23
2023-03-15T04:58:50.097Z,24.92
2023-03-15T05:01:30.269Z,27.75
2023-03-15T05:04:16.542Z,29.87
2023-03-15T05:06:53.956Z,28.67
2023-03-15T05:09:32.419Z,29.32
2023-03-15T05:12:03.523Z,26.68
2023-03-15T05:14:35.420Z,23.83
2023-03-15T05:17:07.138Z,14.80
2023-03-15T05:19:56.382Z,11.63
2023-03-15T05:22:40.950Z,13.75
2023-03-15T05:25:21.004Z,9.03
2023-03-15T05:27:56.673Z,10.75
2023-03-15T05:30:27.886Z,12.03
2023-03-15T05:33:11.169Z,7.65
2023-03-15T05:35:53.147Z,10.60
2023-03-15T05:38:39.376Z,6.00
2023-03-15T05:41:10.795Z,9.05
2023-03-15T05:43:47.488Z,6.92
2023-03-15T05:46:36.683Z,7.28
2023-03-15T05:49:10.942Z,10.15
2023-03-15T05:51:50.599Z,9.90
2023-03-15T05:54:21.758Z,5.30
2023-03-15T05:56:52.709Z,10.15
2023-03-15T05:59:42.275Z,6.47
2023-03-15T06:02:22.531Z,9.35
2023-03-15T06:04:53.799Z,5.75
2023-03-15T06:07:24.704Z,6.47
2023-03-15T06:09:54.669Z,11.68
2023-03-15T06:12:23.933Z,8.90
2023-03-15T06:14:54.153Z,6.75
2023-03-15T06:17:23.359Z,6.75
2023-03-15T06:19:52.667Z,6.78
2023-03-15T06:22:24.072Z,6.12
2023-03-15T06:24:55.331Z,9.73
2023-03-15T06:27:25.068Z,6.03
2023-03-15T06:29:56.533Z,5.10
2023-03-15T06:32:26.348Z,7.08
2023-03-15T06:34:55.777Z,8.80
2023-03-15T06:37:34.973Z,6.22
2023-03-15T06:39:57.446Z,8.63
2023-03-15T06:42:27.966Z,5.90
2023-03-15T06:44:57.544Z,5.80
2023-03-15T06:47:27.108Z,7.37
2023-03-15T06:49:57.065Z,6.87
2023-03-15T06:52:26.471Z,5.92
2023-03-15T06:54:55.800Z,4.75
2023-03-15T06:57:33.845Z,7.95
2023-03-15T07:00:07.849Z,7.08
2023-03-15T07:02:37.822Z,5.80
2023-03-15T07:05:08.336Z,4.78
2023-03-15T07:07:38.006Z,7.97
2023-03-15T07:10:09.131Z,4.12
2023-03-15T07:12:38.418Z,3.58
2023-03-15T07:15:08.719Z,5.15
2023-03-15T07:17:37.936Z,3.58
2023-03-15T07:20:08.314Z,3.75
2023-03-15T07:22:37.981Z,4.70
2023-03-15T07:25:08.060Z,4.53
2023-03-15T07:27:37.273Z,3.72
2023-03-15T07:30:08.174Z,5.83
2023-03-15T07:32:39.143Z,5.95
2023-03-15T07:35:09.848Z,4.55
2023-03-15T07:37:44.255Z,2.92
2023-03-15T07:40:12.624Z,3.08
2023-03-15T07:42:42.197Z,3.52
2023-03-15T07:45:12.637Z,2.72
2023-03-15T07:47:41.915Z,5.12
2023-03-15T07:50:14.626Z,4.10
2023-03-15T07:52:43.524Z,5.08
2023-03-15T07:55:12.981Z,3.40
2023-03-15T07:57:42.203Z,3.98
2023-03-15T08:00:13.613Z,6.67
2023-03-15T08:02:43.039Z,4.17
2023-03-15T08:05:12.316Z,4.42
2023-03-15T08:07:41.964Z,5.67
2023-03-15T08:10:11.770Z,5.75
2023-03-15T08:12:43.075Z,6.25
2023-03-15T08:15:13.391Z,7.62
2023-03-15T08:17:43.427Z,8.15
2023-03-15T08:20:14.976Z,5.00
2023-03-15T08:22:45.928Z,5.67
2023-03-15T08:25:17.169Z,5.05
2023-03-15T08:27:46.718Z,7.40
2023-03-15T08:30:16.689Z,7.72
2023-03-15T08:32:47.583Z,6.37
2023-03-15T08:35:18.931Z,5.30
2023-03-15T08:37:48.516Z,7.25
2023-03-15T08:40:20.388Z,3.85
2023-03-15T08:42:49.621Z,4.72
2023-03-15T08:45:19.173Z,4.72
2023-03-15T08:47:48.659Z,6.45
2023-03-15T08:50:19.417Z,5.33
2023-03-15T08:52:48.839Z,4.97
2023-03-15T08:55:18.504Z,5.03
2023-03-15T08:57:48.124Z,6.10
2023-03-15T09:00:19.933Z,6.78
2023-03-15T09:02:50.320Z,9.98
2023-03-15T09:05:20.069Z,3.45
2023-03-15T09:07:49.842Z,4.83
2023-03-15T09:10:19.576Z,4.45
2023-03-15T09:12:52.576Z,5.67
2023-03-15T09:15:22.017Z,5.45
2023-03-15T09:17:54.899Z,4.45
2023-03-15T09:20:25.844Z,4.80
2023-03-15T09:22:57.173Z,5.10
2023-03-15T09:25:27.030Z,3.98
2023-03-15T09:27:56.401Z,5.25
2023-03-15T09:30:25.881Z,5.33
2023-03-15T09:32:55.430Z,4.55
2023-03-15T09:35:24.658Z,5.83
2023-03-15T09:37:54.361Z,3.27
2023-03-15T09:40:27.861Z,5.12
2023-03-15T09:43:10.347Z,4.37
2023-03-15T09:48:38.091Z,4.33
2023-03-15T09:51:26.992Z,5.53
2023-03-15T09:54:19.568Z,4.22
2023-03-15T09:59:32.409Z,7.00
2023-03-15T10:02:04.904Z,6.55
2023-03-15T10:04:37.517Z,4.62
2023-03-15T10:07:10.245Z,3.45
2023-03-15T10:09:39.623Z,4.17
2023-03-15T10:12:14.513Z,4.53
2023-03-15T10:15:06.159Z,5.55
2023-03-15T10:17:39.123Z,4.92
2023-03-15T10:20:22.728Z,4.55
2023-03-15T10:22:57.992Z,5.60
2023-03-15T10:25:30.013Z,5.03
2023-03-15T10:28:05.838Z,5.00
2023-03-15T10:30:48.861Z,6.10
2023-03-15T10:33:34.846Z,5.45
2023-03-15T10:36:11.290Z,4.15
2023-03-15T10:38:37.534Z,3.33
2023-03-15T10:41:08.681Z,6.33
2023-03-15T10:43:39.810Z,3.75
2023-03-15T10:46:24.508Z,4.08
2023-03-15T10:49:01.620Z,4.12
2023-03-15T10:51:34.023Z,6.62
2023-03-15T10:54:17.660Z,5.15
2023-03-15T10:56:49.730Z,4.03
2023-03-15T10:59:22.033Z,4.42
2023-03-15T11:04:24.107Z,2.83
2023-03-15T11:07:03.522Z,4.67
2023-03-15T11:09:42.340Z,3.98
2023-03-15T11:12:14.268Z,4.12
2023-03-15T11:14:46.518Z,4.92
2023-03-15T11:17:24.857Z,2.08
2023-03-15T11:20:13.181Z,6.10
2023-03-15T11:22:42.501Z,5.30
2023-03-15T11:25:18.440Z,3.33
2023-03-15T11:27:50.275Z,4.35
2023-03-15T11:30:20.978Z,5.53
2023-03-15T11:32:50.878Z,3.62
2023-03-15T11:35:34.553Z,4.97
2023-03-15T11:38:16.203Z,5.03
2023-03-15T11:40:50.104Z,2.70
2023-03-15T11:43:25.530Z,3.58
2023-03-15T11:46:00.097Z,4.45
2023-03-15T11:48:48.503Z,4.60
2023-03-15T11:51:17.821Z,4.17
2023-03-15T11:54:08.275Z,3.50
2023-03-15T11:56:55.958Z,4.47
2023-03-15T11:59:32.872Z,3.22
2023-03-15T12:02:14.215Z,6.90
2023-03-15T12:04:46.102Z,3.45
2023-03-15T12:07:23.288Z,3.12
2023-03-15T12:09:57.180Z,3.67
2023-03-15T12:12:29.597Z,2.67
2023-03-15T12:15:17.178Z,1.42
2023-03-15T12:17:51.181Z,5.03
2023-03-15T12:20:23.897Z,2.10
2023-03-15T12:22:57.910Z,2.12
2023-03-15T12:25:54.128Z,3.85
2023-03-15T12:28:15.847Z,3.65
2023-03-15T12:30:46.397Z,3.15
2023-03-15T12:33:17.781Z,3.35
2023-03-15T12:35:47.799Z,4.08
2023-03-15T12:38:22.316Z,3.02
2023-03-15T12:40:59.180Z,4.97
2023-03-15T12:43:45.199Z,3.52
2023-03-15T12:46:43.311Z,3.72
2023-03-15T12:49:27.511Z,3.12
2023-03-15T12:51:59.925Z,3.60
2023-03-15T12:54:50.718Z,3.98
2023-03-15T12:57:25.675Z,4.60
2023-03-15T13:00:05.568Z,2.42
2023-03-15T13:02:43.826Z,3.33
2023-03-15T13:05:17.639Z,3.15
2023-03-15T13:07:58.572Z,2.50
2023-03-15T13:10:53.035Z,2.35
2023-03-15T13:13:40.607Z,1.30
2023-03-15T13:16:22.553Z,2.50
2023-03-15T13:19:14.403Z,2.45
2023-03-15T13:22:20.658Z,2.80
2023-03-15T13:25:17.196Z,2.98
2023-03-15T13:28:22.522Z,2.08
2023-03-15T13:30:59.465Z,2.33
2023-03-15T13:33:32.873Z,3.95
2023-03-15T13:36:09.392Z,2.37
2023-03-15T13:38:50.287Z,3.80
2023-03-15T13:41:25.486Z,1.90
2023-03-15T13:43:59.685Z,3.33
2023-03-15T13:46:31.710Z,3.42
2023-03-15T13:49:01.958Z,4.97
2023-03-15T13:51:39.221Z,2.00
2023-03-15T13:54:27.071Z,3.25
2023-03-15T13:57:08.482Z,3.05
2023-03-15T13:59:43.180Z,3.62
2023-03-15T14:02:18.316Z,3.25
2023-03-15T14:04:51.002Z,1.77
2023-03-15T14:07:26.044Z,2.45
2023-03-15T14:10:26.687Z,2.58
2023-03-15T14:12:57.023Z,2.62
2023-03-15T14:15:32.468Z,4.95
2023-03-15T14:18:11.245Z,4.33
2023-03-15T14:20:45.361Z,2.80
2023-03-15T14:23:16.912Z,3.42
2023-03-15T14:25:54.203Z,2.85
2023-03-15T14:28:24.833Z,2.65
2023-03-15T14:30:56.248Z,2.70
2023-03-15T14:33:34.101Z,2.22
2023-03-15T14:36:08.740Z,4.28
2023-03-15T14:38:39.580Z,4.58
2023-03-15T14:41:20.694Z,1.42
2023-03-15T14:43:50.034Z,3.67
2023-03-15T14:46:19.713Z,2.75
2023-03-15T14:48:51.101Z,1.82
2023-03-15T14:51:23.171Z,4.53
2023-03-15T14:53:56.192Z,2.30
2023-03-15T14:56:26.006Z,2.45
2023-03-15T14:58:55.747Z,4.03
2023-03-15T15:01:28.748Z,5.00
2023-03-15T15:04:01.616Z,2.30
2023-03-15T15:06:32.416Z,2.52
2023-03-15T15:09:02.116Z,2.85
2023-03-15T15:11:31.613Z,4.60
2023-03-15T15:14:07.828Z,1.95
2023-03-15T15:16:44.887Z,3.60
2023-03-15T15:19:18.767Z,2.30
2023-03-15T15:21:50.880Z,4.25
2023-03-15T15:24:22.049Z,3.52
2023-03-15T15:26:51.918Z,4.72
2023-03-15T15:29:22.319Z,2.02
2023-03-15T15:31:51.787Z,2.83
2023-03-15T15:34:21.250Z,1.70
2023-03-15T15:36:52.055Z,3.65
2023-03-15T15:39:29.700Z,3.50
2023-03-15T15:41:59.022Z,2.80
2023-03-15T15:44:28.589Z,7.47
2023-03-15T15:46:57.824Z,3.15
2023-03-15T15:49:27.178Z,4.08
2023-03-15T15:51:56.694Z,4.50
2023-03-15T15:54:31.495Z,4.55
2023-03-15T15:57:02.425Z,2.42
2023-03-15T15:59:31.771Z,4.65
2023-03-15T16:02:02.404Z,3.22
2023-03-15T16:04:33.103Z,9.65
2023-03-15T16:07:08.139Z,5.95
2023-03-15T16:09:40.375Z,6.40
2023-03-15T16:12:14.111Z,4.58
2023-03-15T16:14:43.522Z,5.17
2023-03-15T16:17:24.410Z,4.87
2023-03-15T16:19:54.216Z,6.00
2023-03-15T16:22:25.040Z,5.58
2023-03-15T16:24:56.241Z,6.25
2023-03-15T16:27:27.099Z,5.78
2023-03-15T16:29:56.777Z,3.98
2023-03-15T16:32:41.373Z,6.78
2023-03-15T16:34:58.106Z,7.17
2023-03-15T16:37:30.644Z,3.08
2023-03-15T16:42:30.127Z,5.42
2023-03-15T16:44:59.316Z,4.40
2023-03-15T16:47:28.924Z,4.90
2023-03-15T16:49:58.120Z,4.37
2023-03-15T16:52:27.366Z,5.55
2023-03-15T16:54:57.292Z,6.50
2023-03-15T16:57:27.612Z,3.77
2023-03-15T16:59:57.246Z,4.15
2023-03-15T17:02:31.347Z,3.83
2023-03-15T17:05:00.716Z,5.22
2023-03-15T17:07:34.787Z,5.20
2023-03-15T17:10:17.072Z,5.75
2023-03-15T17:12:49.573Z,5.67
2023-03-15T17:15:21.521Z,4.30
2023-03-15T17:17:51.829Z,6.50
2023-03-15T17:20:22.036Z,5.40
2023-03-15T17:22:52.502Z,4.75
2023-03-15T17:25:21.776Z,5.15
2023-03-15T17:27:52.431Z,6.95
2023-03-15T17:30:31.960Z,5.37
2023-03-15T17:33:02.205Z,4.92
2023-03-15T17:35:38.921Z,7.78
2023-03-15T17:38:11.899Z,4.45
2023-03-15T17:40:41.603Z,5.67
2023-03-15T17:43:12.821Z,5.40
2023-03-15T17:45:42.719Z,3.75
2023-03-15T17:48:12.490Z,5.60
2023-03-15T17:50:44.360Z,4.47
2023-03-15T17:53:21.487Z,4.08
2023-03-15T17:55:52.744Z,5.97
2023-03-15T17:58:24.520Z,4.87
2023-03-15T18:00:56.180Z,5.35
2023-03-15T18:03:27.041Z,6.97
2023-03-15T18:05:57.280Z,5.78
2023-03-15T18:08:27.495Z,5.53
2023-03-15T18:10:57.109Z,6.17
2023-03-15T18:13:28.352Z,6.25
2023-03-15T18:15:58.087Z,5.40
2023-03-15T18:18:27.658Z,8.58
2023-03-15T18:20:57.199Z,8.15
2023-03-15T18:23:27.216Z,6.17
2023-03-15T18:25:57.108Z,9.05
2023-03-15T18:28:26.739Z,7.05
2023-03-15T18:30:56.282Z,7.10
2023-03-15T18:33:26.586Z,8.83
2023-03-15T18:35:56.047Z,7.70
2023-03-15T18:38:25.944Z,5.75
2023-03-15T18:40:56.815Z,9.25
2023-03-15T18:43:26.617Z,10.28
2023-03-15T18:45:56.125Z,11.20
2023-03-15T18:48:39.696Z,9.55
2023-03-15T18:50:57.453Z,7.72
2023-03-15T18:53:27.434Z,6.92
2023-03-15T18:55:56.801Z,8.05
2023-03-15T18:58:26.522Z,9.28
2023-03-15T19:00:57.209Z,9.50
2023-03-15T19:03:26.811Z,5.95
2023-03-15T19:05:56.588Z,6.78
2023-03-15T19:08:26.056Z,8.58
2023-03-15T19:11:00.666Z,8.08
2023-03-15T19:13:30.241Z,6.70
2023-03-15T19:15:59.682Z,6.47
2023-03-15T19:18:31.738Z,6.45
2023-03-15T19:21:01.717Z,7.95
2023-03-15T19:23:32.431Z,9.73
2023-03-15T19:26:03.032Z,13.50
2023-03-15T19:28:33.388Z,9.83
2023-03-15T19:31:03.323Z,12.30
2023-03-15T19:33:32.897Z,11.83
2023-03-15T19:36:02.741Z,11.28
2023-03-15T19:38:33.107Z,11.25
2023-03-15T19:41:11.345Z,10.38
2023-03-15T19:43:43.700Z,11.33
2023-03-15T19:46:15.366Z,12.60
2023-03-15T19:48:45.066Z,12.18
2023-03-15T19:51:14.310Z,14.58
2023-03-15T19:53:44.087Z,15.50
2023-03-15T19:56:13.496Z,13.75
2023-03-15T19:58:43.005Z,14.20
2023-03-15T20:01:14.711Z,15.83
2023-03-15T20:03:44.057Z,13.72
2023-03-15T20:06:14.228Z,16.32
2023-03-15T20:08:44.262Z,15.55
2023-03-15T20:11:15.153Z,13.60
2023-03-15T20:13:44.822Z,14.75
2023-03-15T20:16:15.798Z,13.32
2023-03-15T20:18:45.212Z,15.13
2023-03-15T20:21:15.152Z,11.97
2023-03-15T20:23:45.533Z,14.23
2023-03-15T20:26:17.193Z,13.75
2023-03-15T20:28:47.446Z,12.23
2023-03-15T20:31:18.823Z,13.18
2023-03-15T20:33:50.855Z,12.95
2023-03-15T20:36:21.819Z,10.50
2023-03-15T20:38:51.499Z,13.65
2023-03-15T20:41:21.514Z,11.50
2023-03-15T20:43:51.055Z,11.40
2023-03-15T20:46:22.126Z,10.20
2023-03-15T20:48:53.443Z,11.38
2023-03-15T20:51:23.395Z,9.53
2023-03-15T20:53:52.849Z,9.00
2023-03-15T20:56:22.774Z,12.03
2023-03-15T20:58:53.042Z,11.75
2023-03-15T21:01:23.352Z,11.70
2023-03-15T21:04:00.271Z,10.82
2023-03-15T21:06:30.987Z,12.70
2023-03-15T21:09:02.851Z,12.37
2023-03-15T21:11:33.672Z,10.20
2023-03-15T21:14:03.448Z,9.45
2023-03-15T21:16:36.738Z,11.25
2023-03-15T21:19:06.581Z,10.38
2023-03-15T21:21:41.122Z,10.20
2023-03-15T21:24:12.566Z,12.85
2023-03-15T21:26:44.267Z,9.38
2023-03-15T21:29:15.832Z,8.87
2023-03-15T21:31:45.780Z,13.38
2023-03-15T21:34:15.775Z,13.08
2023-03-15T21:36:45.721Z,11.55
2023-03-15T21:39:16.454Z,11.97
2023-03-15T21:41:46.438Z,11.95
2023-03-15T21:44:16.562Z,8.93
2023-03-15T21:46:46.868Z,13.05
2023-03-15T21:49:16.733Z,9.65
2023-03-15T21:51:46.332Z,10.48
2023-03-15T21:54:15.934Z,9.63
2023-03-15T21:56:45.257Z,9.98
2023-03-15T21:59:15.081Z,9.28
2023-03-15T22:01:44.367Z,9.10
2023-03-15T22:04:14.026Z,11.48
2023-03-15T22:06:43.875Z,10.00
2023-03-15T22:09:13.112Z,8.38
2023-03-15T22:11:42.511Z,9.40
2023-03-15T22:14:12.524Z,9.35
2023-03-15T22:16:42.187Z,9.38
2023-03-15T22:19:11.720Z,11.10
2023-03-15T22:21:42.387Z,12.37
2023-03-15T22:24:11.941Z,10.32
2023-03-15T22:26:43.011Z,10.50
2023-03-15T22:29:12.545Z,11.83
2023-03-15T22:31:41.866Z,11.18
2023-03-15T22:34:11.115Z,16.15
2023-03-15T22:36:42.590Z,11.73
2023-03-15T22:39:12.440Z,9.97
2023-03-15T22:41:41.939Z,10.10
2023-03-15T22:44:11.779Z,12.23
2023-03-15T22:46:41.343Z,15.20
2023-03-15T22:49:11.114Z,12.78
2023-03-15T22:51:40.819Z,10.72
2023-03-15T22:54:10.855Z,12.95
2023-03-15T22:56:41.115Z,12.18
2023-03-15T22:59:10.688Z,12.33
2023-03-15T23:01:39.927Z,12.18
2023-03-15T23:04:09.737Z,11.33
2023-03-15T23:06:39.008Z,11.68
2023-03-15T23:09:08.629Z,11.95
2023-03-15T23:11:37.989Z,10.48
2023-03-15T23:14:13.858Z,9.80
2023-03-15T23:16:43.260Z,12.00
2023-03-15T23:19:13.507Z,10.48
2023-03-15T23:21:42.842Z,10.30
2023-03-15T23:24:13.917Z,9.50
2023-03-15T23:26:44.029Z,12.03
2023-03-15T23:29:13.412Z,9.50
2023-03-15T23:31:43.293Z,12.10
2023-03-15T23:34:13.071Z,10.78
2023-03-15T23:36:45.208Z,14.80
2023-03-15T23:39:13.629Z,9.60
2023-03-15T23:41:44.813Z,10.53
2023-03-15T23:44:14.194Z,11.78
2023-03-15T23:46:43.701Z,12.78
2023-03-15T23:49:13.266Z,11.28
2023-03-15T23:51:43.959Z,15.90
2023-03-15T23:54:13.174Z,13.50
2023-03-15T23:56:42.916Z,14.80
2023-03-15T23:59:12.663Z,11.95
